SAMX41
METAR MMAA 141748Z 22004KT 8SM FEW010TCU SCT300 31/23 A2992 RMK SLP132 52005 962 8/202 DSNT CB S=
METAR MMBT 141840Z 00000KT 10SM FEW020 32/22 A2996 RMK 8/100=
METAR MMCB 141840Z 14006KT 7SM BKN020 BKN025 BKN080 OVC250 25/18 A3015 RMK 8/237 MDT CU VC DSNT TCU FRMG CBS 4TH QUAD SSE HZY=
METAR MMIT ###########################
METAR MMMX 141742Z 10004KT 6SM SCT020 BKN220 21/10 A3034 NOSIG RMK SLP104 57002 953 8/208 HZY AC DSNT TCU N=
METAR MMSM 141746Z 26003KT 6SM BKN020TCU BKN200 22/13 A3032 RMK 8/208 HZY AC=
METAR MMOX 141841Z 13003KT 8SM BKN025TCU BKN080 OVC210 25/13 A3022 RMK 8/237 MDT CU ARND HZY=
METAR MMPA 141741Z 03008KT 4SM BKN030 BKN280 31/23 A2991 RMK SLP109 57009 965 8/108 HZY=
METAR MMPB 141747Z 12002KT 10SM SCT015 BKN100 BKN230 20/11 A3034 RMK 8/232 HZY=
METAR MMPS 141741Z 18005KT 12SM FEW030 SCT200 30/22 A2994 RMK 8/402 HZY=
METAR MMQT 141757Z RTD 22007KT 6SM SCT020TCU BKN250 26/13 A3029 RMK 8/208 HZY=
METAR MMTM 141750Z 14010KT 8SM SCT020 BKN200 33/24 A2991 RMK SLP127 57004 954 8/102=
METAR MMTO 141747Z 07002KT 6SM SCT015TCU BKN080 BKN250 19/10 A3039 RMK SLP088 52003 956 8/232 HZY=
METAR MMVR 141748Z 16005KT 7SM BKN045 30/24 A2993 RMK SLP125 52016 904 8/500 HZY DSNT CB 3TH 4TH QUAD=
METAR MMZH 141840Z 22007KT 7SM FEW020 SCT100 SCT250 31/23 A2993 RMK 8/132 HZY DSNT CB SW=

SAMX42
METAR MMAS 141840Z 18005KT 9SM SCT040 SCT200 22/11 A3025 RMK 8/102=
METAR MMEP 141746Z 32006KT 12SM FEW020 BKN100 26/19 A3007 RMK SLP145 57003 968 8/130=
METAR MMGL 141742Z 00000KT 5SM SCT020 BKN090 OVC300 21/14 A3022 RMK SLP130 52005 957 8/537 HZY=
METAR MMIA 141755Z 00000KT 4SM BKN020 OVC100 26/23 A3005 RMK 8/5// HZY=
METAR COR MMLO 141841Z 00000KT 10SM SCT030TCU SCT250 23/14 A3030 RMK 8/208=
METAR MMMM 141840Z 27003KT 7SM SCT020 23/16 A3023 RMK 8/200 TCU 3TH QUAD CI=
METAR MMPN 141740Z 00000KT 8SM OVC070 22/17 A3021 RMK 8/03/ HZY TCU S CU ARND BINOVC=
METAR MMPR 141747Z 04007KT 15SM FEW025 SCT090 28/25 A2992 RMK SLP128 57014 967 8/130 CI=
METAR MMSP 141840Z 12005KT 8SM BKN025CB 22/13 A3022 RMK 8/300 ISOL CI DSNT PCPN 1ST QUAD=
METAR MMZC 141840Z E00000KT 10SM BKN040 21/13 A3026 RMK 8/400=
METAR MMZO 141740Z 21010KT 12SM FEW020 SCT120 BKN250 29/25 A2992 RMK SLP084 8/139 CBS DSNT N=

SAMX43
METAR MMCL 141753Z 00000KT 10SM BKN035 BKN250 31/24 A2991 RMK SLP127 52005 955 8/108 MDT CU=
METAR MMCN 141741Z 24003KT 10SM BKN030 31/20 A2988 RMK SLP119 8/500 ISOL AC CI HZY=
METAR MMDO 141748Z 02003KT 9SM FEW012 BKN030 22/13 A3028 RMK SLP119 57001 964 8/100 ISOL TCU CI HZY=
METAR MMGM 141840Z 36010KT 10SM OVC120 35/26 A2984 RMK 8/01/=
METAR MMHO 141740Z 32004KT 10SM BKN090 BKN200 33/23 A2995 RMK SLP133 54000 968 8/038=
METAR MMLM 141740Z 20009KT 10SM SCT020 BKN080 BKN220 32/20 A2991 RMK SLP129 8/538=
METAR MMLP 141840Z 28006KT 10SM FEW035 BKN200 34/15 A2990 RMK 8/108 HZ=
METAR MMLT 141840Z 14008KT 8SM SCT020TCU SCT200 33/27 A2986 RMK 8/205 HZY=
METAR MMML 141842Z 12004KT 10SM SKC 37/19 A2986 RMK TCU SW W=
METAR MMMZ 141743Z 17002KT 15SM SCT018TCU SCT090 30/26 A2992 RMK SLP129 52003 966 8/260 ISOL CI=
METAR MMSD 141746Z 14013KT 10SM FEW040TCU SCT220 32/20 A2992 RMK SLP114 52001 993 8/204 DSNT CB W=
METAR MMSL 141840Z 20010KT 10SM TS SCT040CB SCT240 31/24 A2994 RMK 8/908 PCPN 1-4QUAD=
METAR MMTJ 141740Z 28005KT 6SM SKC 27/20 A2996 RMK SLP149 52012 900 HZY=

SAMX44
METAR MMCE 141840Z 14008KT 7SM SCT020 32/24 A2991 RMK 8/100 HZY=
METAR MMCM 141841Z 13012KT 7SM SCT020TCU BKN100 30/25 A2994 RMK 8/260 CB NW AND N=
METAR MMCP 141741Z 00000KT 7SM BKN020TCU BKN300 32/23 A2996 RMK SLP131 57001 956 8/201 HZY=
METAR MMCT 141742Z 00000KT 8SM SCT015TCU SCT250 32/24 A2997 RMK 8/201=
METAR MMCZ 141740Z 13007KT 8SM SCT015 34/22 A2998 RMK SLP156 52002 959 8/100 SC CI=
METAR MMMD 141745Z 18006KT 7SM BKN020 32/23 A2997 RMK SLP157 57010 900 8/100 CI=
METAR MMMT 141840Z 36010KT 7SM SCT020 32/26 A2988 RMK 8/100=
METAR MMPQ 141842Z 00000KT 7SM FEW030 32/25 A2980 RMK 8/100=
METAR MMTG 141841Z 33003KT 8SM SCT025TCU 29/22 A2998 RMK 8/200 CB DSTNT NE E=
METAR MMTP 141840Z 23005KT 10SM FEW030 SCT220 32/27 A2990 RMK 8/108 HZY DSNT TCU 1 QUAD=
METAR MMUN 141748Z 13010KT 7SM SCT015TCU 31/23 A2999 RMK SLP155 52001 958 8/200=
METAR MMVA 141747Z 00000KT 5SM SCT010 33/23 A2993 RMK SLP134 57003 963 8/100 HZY=

SAMX45
METAR MMAN 141840Z 00000KT 12SM SCT035 OVC080 30/19 A2997 RMK 8/57/ CU FRMG NW=
METAR MMCS 141840Z 12010KT 10SM FEW040 SCT150 34/11 A3011 RMK 8/130=
METAR MMCU 141840Z 04005KT 10SM SCT030TCU SCT200 31/12 A3014 RMK 8/208 ISOL CB=
METAR MMCV 141743Z 15006KT 10SM FEW030CB SCT120 32/18 A2993 RMK SLP/// 52001 962 8/330 HZY ISOL CI=
METAR MMIO 141843Z 36010KT 10SM BKN050 26/09 A3024 RMK 8/500 OCNL DROP=
METAR MMMA 141748Z 16015KT 8SM SCT018CB BKN070 BKN200 31/25 A2988 RMK SLP118 57006 979 8/363 RAE15=
METAR MMMV 141741Z 04008KT 10SM SCT050 SCT200 33/19 A2997 RMK 8/502=
METAR MMMY 141745Z 00000KT 12SM BKN050 OVC100 30/20 A2994 RMK SLP/// 5//// 9// 8/57/ DSNT CB 4 CUAD=
METAR MMNL 141840Z 07008KT 8SM FEW030 SCT080 BKN200 29/22 A2988 RMK 8/572=
METAR MMPG 141840Z 03015KT 10SM SCT050 36/21 A2992 RMK 8/200=
METAR MMRX 141741Z 24005KT 6SM SCT023 OVC090 29/22 A2990 RMK SLP172 54000 967 8/52/ HZY=
METAR MMTC 141740Z 00000KT 10SM BKN020 31/15 A3011 RMK SLP086 52003 967 8/100 CB N=